< < Back
Terminal Aerodrome Forecast


Current Version              Previous Versions:   1  2  3  4  5  6  7  8  9  

Terminal Aerodrome Forecast

958
FTUS42 KFFC 261102 AAC
TAFMCN
TAF AMD
KMCN 261102Z 2611/2706 12003KT 5SM BR FEW100
      TEMPO 2611/2613 5SM BR BKN010
     FM261400 14006KT P6SM FEW035
     FM261800 16007KT P6SM VCSH SCT045 PROB30 2623/2703 6SM -TSRA
      OVC035CB
     FM270400 21002KT 6SM BR VCSH BKN050 BKN100=



Latest METAR

494
SAUS80 KWBC 261400 CCA
MTRMCN
METAR KMCN 261353Z COR 08005KT 5SM BR BKN004 24/22 A3009 RMK AO2 SLP184
T02390217


USA.gov is the U.S. government's official web portal to all federal, state and local government web resources and services.